createdAt,value
2022-10-12T00:00:14.977Z,5.05
2022-10-12T00:02:42.881Z,5.00
2022-10-12T00:05:11.003Z,5.25
2022-10-12T00:07:40.160Z,5.00
2022-10-12T00:10:08.685Z,5.43
2022-10-12T00:12:37.169Z,5.60
2022-10-12T00:15:05.208Z,5.75
2022-10-12T00:17:32.544Z,6.20
2022-10-12T00:19:59.855Z,6.18
2022-10-12T00:22:27.246Z,6.80
2022-10-12T00:24:54.578Z,7.13
2022-10-12T00:27:22.150Z,7.25
2022-10-12T00:29:49.598Z,6.90
2022-10-12T00:32:17.123Z,6.55
2022-10-12T00:34:44.470Z,6.80
2022-10-12T00:37:11.786Z,7.05
2022-10-12T00:39:39.199Z,6.93
2022-10-12T00:42:06.644Z,7.00
2022-10-12T00:44:48.353Z,6.82
2022-10-12T00:47:21.540Z,7.10
2022-10-12T00:50:03.239Z,7.07
2022-10-12T00:52:40.950Z,7.38
2022-10-12T00:55:13.780Z,6.70
2022-10-12T00:57:46.632Z,6.95
2022-10-12T01:00:15.040Z,7.32
2022-10-12T01:02:46.623Z,7.05
2022-10-12T01:05:14.256Z,7.30
2022-10-12T01:07:41.809Z,8.25
2022-10-12T01:10:09.551Z,8.02
2022-10-12T01:12:38.346Z,8.93
2022-10-12T01:15:06.517Z,8.68
2022-10-12T01:18:07.313Z,8.70
2022-10-12T01:20:46.784Z,9.32
2022-10-12T01:23:44.303Z,8.55
2022-10-12T01:26:48.598Z,9.73
2022-10-12T01:29:31.451Z,10.23
2022-10-12T01:32:53.502Z,10.95
2022-10-12T01:35:25.680Z,11.15
2022-10-12T01:38:11.194Z,11.60
2022-10-12T01:41:08.311Z,12.57
2022-10-12T01:43:39.761Z,12.23
2022-10-12T01:46:17.364Z,11.70
2022-10-12T01:48:47.947Z,11.48
2022-10-12T01:51:40.933Z,12.32
2022-10-12T01:54:26.149Z,12.38
2022-10-12T01:57:19.752Z,12.63
2022-10-12T02:00:05.407Z,13.30
2022-10-12T02:02:56.844Z,13.80
2022-10-12T02:05:37.113Z,12.35
2022-10-12T02:08:09.211Z,11.95
2022-10-12T02:10:49.564Z,12.57
2022-10-12T02:13:20.974Z,11.93
2022-10-12T02:15:49.595Z,12.18
2022-10-12T02:18:20.631Z,13.30
2022-10-12T02:20:51.925Z,13.00
2022-10-12T02:23:21.734Z,13.00
2022-10-12T02:25:51.864Z,12.50
2022-10-12T02:28:24.318Z,12.90
2022-10-12T02:31:05.604Z,12.43
2022-10-12T02:33:43.417Z,13.00
2022-10-12T02:36:26.754Z,12.88
2022-10-12T02:39:03.038Z,12.93
2022-10-12T02:41:38.951Z,13.02
2022-10-12T02:44:13.277Z,12.23
2022-10-12T02:46:41.731Z,13.07
2022-10-12T02:49:11.229Z,12.93
2022-10-12T02:51:40.865Z,12.55
2022-10-12T02:54:08.457Z,11.75
2022-10-12T02:56:43.225Z,11.73
2022-10-12T02:59:10.512Z,12.00
2022-10-12T03:01:38.039Z,12.30
2022-10-12T03:04:05.620Z,12.38
2022-10-12T03:06:33.091Z,12.38
2022-10-12T03:09:05.635Z,12.18
2022-10-12T03:11:33.078Z,11.95
2022-10-12T03:14:00.571Z,13.10
2022-10-12T03:16:27.938Z,12.80
2022-10-12T03:18:55.261Z,13.93
2022-10-12T03:21:22.518Z,13.07
2022-10-12T03:23:49.866Z,13.85
2022-10-12T03:26:17.165Z,13.32
2022-10-12T03:28:44.581Z,13.52
2022-10-12T03:31:13.281Z,13.27
2022-10-12T03:33:40.584Z,13.23
2022-10-12T03:36:08.445Z,13.18
2022-10-12T03:38:36.134Z,14.07
2022-10-12T03:41:06.755Z,13.73
2022-10-12T03:43:35.070Z,13.98
2022-10-12T03:46:02.534Z,13.95
2022-10-12T03:48:30.061Z,14.70
2022-10-12T03:50:58.431Z,14.45
2022-10-12T03:53:25.876Z,13.60
2022-10-12T03:55:53.242Z,13.05
2022-10-12T03:58:20.531Z,12.52
2022-10-12T04:00:47.917Z,11.80
2022-10-12T04:03:15.278Z,12.27
2022-10-12T04:05:42.548Z,12.10
2022-10-12T04:08:09.990Z,11.43
2022-10-12T04:10:38.401Z,11.45
2022-10-12T04:13:05.915Z,11.77
2022-10-12T04:15:33.212Z,11.55
2022-10-12T04:18:00.561Z,11.38
2022-10-12T04:20:28.449Z,11.57
2022-10-12T04:22:55.890Z,12.35
2022-10-12T04:25:27.730Z,12.55
2022-10-12T04:27:57.669Z,12.60
2022-10-12T04:30:25.085Z,14.30
2022-10-12T04:32:52.702Z,13.85
2022-10-12T04:35:20.091Z,13.65
2022-10-12T04:37:47.503Z,13.07
2022-10-12T04:40:14.894Z,13.52
2022-10-12T04:42:42.275Z,14.25
2022-10-12T04:45:09.935Z,14.10
2022-10-12T04:47:37.515Z,14.25
2022-10-12T04:50:05.865Z,14.40
2022-10-12T04:52:33.187Z,14.77
2022-10-12T04:55:00.760Z,14.18
2022-10-12T04:57:28.039Z,13.15
2022-10-12T04:59:55.633Z,14.43
2022-10-12T05:02:23.147Z,14.32
2022-10-12T05:04:50.461Z,14.10
2022-10-12T05:07:17.839Z,14.85
2022-10-12T05:09:45.284Z,15.65
2022-10-12T05:12:12.890Z,16.67
2022-10-12T05:14:40.284Z,16.02
2022-10-12T05:17:07.621Z,16.02
2022-10-12T05:19:35.039Z,18.02
2022-10-12T05:22:02.776Z,18.15
2022-10-12T05:24:30.188Z,19.20
2022-10-12T05:26:57.509Z,18.08
2022-10-12T05:29:24.830Z,17.23
2022-10-12T05:31:52.066Z,17.85
2022-10-12T05:34:19.365Z,17.90
2022-10-12T05:36:47.242Z,18.05
2022-10-12T05:39:14.584Z,19.80
2022-10-12T05:41:41.959Z,18.50
2022-10-12T05:44:09.240Z,18.63
2022-10-12T05:46:36.618Z,18.38
2022-10-12T05:49:03.981Z,18.83
2022-10-12T05:51:31.277Z,17.58
2022-10-12T05:53:58.579Z,16.92
2022-10-12T05:56:26.022Z,17.67
2022-10-12T05:58:53.441Z,15.60
2022-10-12T06:01:20.774Z,15.52
2022-10-12T06:03:48.337Z,14.30
2022-10-12T06:06:15.682Z,16.15
2022-10-12T06:08:43.184Z,16.60
2022-10-12T06:11:10.662Z,15.68
2022-10-12T06:13:38.319Z,14.30
2022-10-12T06:16:06.037Z,14.23
2022-10-12T06:18:36.486Z,13.77
2022-10-12T06:21:28.450Z,13.50
2022-10-12T06:23:51.249Z,13.60
2022-10-12T06:26:18.699Z,13.27
2022-10-12T06:28:46.242Z,12.95
2022-10-12T06:31:14.344Z,13.88
2022-10-12T06:33:41.689Z,12.02
2022-10-12T06:36:09.092Z,12.20
2022-10-12T06:38:36.822Z,11.95
2022-10-12T06:41:04.407Z,12.57
2022-10-12T06:43:33.171Z,13.07
2022-10-12T06:46:04.405Z,14.57
2022-10-12T06:48:31.707Z,14.52
2022-10-12T06:50:59.163Z,14.05
2022-10-12T06:53:29.041Z,14.65
2022-10-12T06:55:56.373Z,14.43
2022-10-12T06:58:23.863Z,15.85
2022-10-12T07:00:52.714Z,14.73
2022-10-12T07:03:20.661Z,16.05
2022-10-12T07:05:48.027Z,17.33
2022-10-12T07:08:15.398Z,17.98
2022-10-12T07:10:42.800Z,16.42
2022-10-12T07:13:10.146Z,16.95
2022-10-12T07:15:37.526Z,16.25
2022-10-12T07:18:04.922Z,16.10
2022-10-12T07:20:32.349Z,15.00
2022-10-12T07:23:11.506Z,14.55
2022-10-12T07:25:39.048Z,15.45
2022-10-12T07:28:06.775Z,15.15
2022-10-12T07:30:36.667Z,15.10
2022-10-12T07:33:04.130Z,14.90
2022-10-12T07:35:31.491Z,16.00
2022-10-12T07:37:58.898Z,13.57
2022-10-12T07:40:28.833Z,10.18
2022-10-12T07:45:44.139Z,8.25
2022-10-12T07:48:14.240Z,8.50
2022-10-12T07:50:41.718Z,8.00
2022-10-12T07:53:09.320Z,7.18
2022-10-12T07:55:36.837Z,6.68
2022-10-12T07:58:04.716Z,6.63
2022-10-12T08:00:32.972Z,7.20
2022-10-12T08:03:00.261Z,6.38
2022-10-12T08:05:27.968Z,7.40
2022-10-12T08:07:56.115Z,6.80
2022-10-12T08:10:23.793Z,6.78
2022-10-12T08:12:53.110Z,6.55
2022-10-12T08:15:20.874Z,6.63
2022-10-12T08:17:48.416Z,6.88
2022-10-12T08:20:15.762Z,7.47
2022-10-12T08:22:43.203Z,6.78
2022-10-12T08:25:10.745Z,7.07
2022-10-12T08:27:38.933Z,6.90
2022-10-12T08:30:07.343Z,6.60
2022-10-12T08:32:34.715Z,6.70
2022-10-12T08:35:02.521Z,6.82
2022-10-12T08:37:30.666Z,6.32
2022-10-12T08:40:02.307Z,6.80
2022-10-12T08:42:44.948Z,6.80
2022-10-12T08:45:26.449Z,8.00
2022-10-12T08:48:07.635Z,7.13
2022-10-12T08:50:44.246Z,7.03
2022-10-12T08:53:16.255Z,7.80
2022-10-12T08:55:46.954Z,8.05
2022-10-12T08:58:21.097Z,7.72
2022-10-12T09:00:53.805Z,8.57
2022-10-12T09:03:43.460Z,8.40
2022-10-12T09:06:24.897Z,9.20
2022-10-12T09:09:07.040Z,8.13
2022-10-12T09:11:57.702Z,7.88
2022-10-12T09:14:33.069Z,7.45
2022-10-12T09:17:05.246Z,7.50
2022-10-12T09:19:38.736Z,8.88
2022-10-12T09:22:13.965Z,7.97
2022-10-12T09:24:41.536Z,7.35
2022-10-12T09:27:16.008Z,8.65
2022-10-12T09:29:50.495Z,6.97
2022-10-12T09:32:33.422Z,6.63
2022-10-12T09:35:02.799Z,7.78
2022-10-12T09:37:33.331Z,8.80
2022-10-12T09:40:00.925Z,8.68
2022-10-12T09:42:28.523Z,7.18
2022-10-12T09:45:03.340Z,7.50
2022-10-12T09:47:33.457Z,7.32
2022-10-12T09:50:06.774Z,6.80
2022-10-12T09:52:36.859Z,6.78
2022-10-12T09:55:20.757Z,6.25
2022-10-12T09:58:00.726Z,6.43
2022-10-12T10:00:33.156Z,7.10
2022-10-12T10:03:02.206Z,6.32
2022-10-12T10:05:38.084Z,5.40
2022-10-12T10:08:23.344Z,5.90
2022-10-12T10:10:56.581Z,7.95
2022-10-12T10:13:30.122Z,8.10
2022-10-12T10:16:09.079Z,7.30
2022-10-12T10:18:37.815Z,7.75
2022-10-12T10:21:08.449Z,7.65
2022-10-12T10:23:51.861Z,6.35
2022-10-12T10:26:21.507Z,6.55
2022-10-12T10:28:51.942Z,6.63
2022-10-12T10:31:23.578Z,6.53
2022-10-12T10:34:24.259Z,5.70
2022-10-12T10:36:56.252Z,5.85
2022-10-12T10:39:28.275Z,5.70
2022-10-12T10:41:56.542Z,6.50
2022-10-12T10:44:26.726Z,6.45
2022-10-12T10:46:56.594Z,7.18
2022-10-12T10:49:49.929Z,6.00
2022-10-12T10:52:36.044Z,6.10
2022-10-12T10:55:22.456Z,5.97
2022-10-12T10:57:52.558Z,5.80
2022-10-12T11:00:40.217Z,6.97
2022-10-12T11:03:14.504Z,6.72
2022-10-12T11:05:49.822Z,6.93
2022-10-12T11:08:25.188Z,6.28
2022-10-12T11:13:36.774Z,7.15
2022-10-12T11:16:15.040Z,7.57
2022-10-12T11:18:49.972Z,7.88
2022-10-12T11:21:24.306Z,7.40
2022-10-12T11:24:01.098Z,7.72
2022-10-12T11:26:54.150Z,8.00
2022-10-12T11:29:21.615Z,8.80
2022-10-12T11:32:15.005Z,9.00
2022-10-12T11:35:00.149Z,9.68
2022-10-12T11:37:39.731Z,10.00
2022-10-12T11:40:19.227Z,9.88
2022-10-12T11:42:53.944Z,9.80
2022-10-12T11:45:35.156Z,9.48
2022-10-12T11:48:16.125Z,9.30
2022-10-12T11:50:47.077Z,9.68
2022-10-12T11:53:20.312Z,10.63
2022-10-12T11:56:09.155Z,10.90
2022-10-12T11:59:00.100Z,11.23
2022-10-12T12:01:50.073Z,13.05
2022-10-12T12:04:42.733Z,12.40
2022-10-12T12:07:44.826Z,14.73
2022-10-12T12:10:28.173Z,13.88
2022-10-12T12:13:23.941Z,13.70
2022-10-12T12:15:53.962Z,13.43
2022-10-12T12:19:13.712Z,13.50
2022-10-12T12:22:19.411Z,15.00
2022-10-12T12:24:59.668Z,19.20
2022-10-12T12:27:38.405Z,18.60
2022-10-12T12:30:33.983Z,17.85
2022-10-12T12:33:05.386Z,15.70
2022-10-12T12:35:35.918Z,14.07
2022-10-12T12:38:17.446Z,14.85
2022-10-12T12:41:10.734Z,15.00
2022-10-12T12:43:51.538Z,15.02
2022-10-12T12:46:20.070Z,14.93
2022-10-12T12:48:47.532Z,14.82
2022-10-12T12:51:17.968Z,14.75
2022-10-12T12:54:10.372Z,16.45
2022-10-12T12:56:48.601Z,15.57
2022-10-12T12:59:40.615Z,16.20
2022-10-12T13:02:23.565Z,15.50
2022-10-12T13:04:56.706Z,15.73
2022-10-12T13:07:42.814Z,15.55
2022-10-12T13:10:42.150Z,14.75
2022-10-12T13:13:44.196Z,14.30
2022-10-12T13:17:09.482Z,14.45
2022-10-12T13:19:17.624Z,15.25
2022-10-12T13:21:52.665Z,16.40
2022-10-12T13:24:20.014Z,16.33
2022-10-12T13:26:51.888Z,16.85
2022-10-12T13:29:28.556Z,16.05
2022-10-12T13:32:01.277Z,14.82
2022-10-12T13:34:45.609Z,15.38
2022-10-12T13:37:15.683Z,16.35
2022-10-12T13:39:47.206Z,15.93
2022-10-12T13:42:18.869Z,14.60
2022-10-12T13:44:48.923Z,14.20
2022-10-12T13:47:25.142Z,14.15
2022-10-12T13:49:53.216Z,13.57
2022-10-12T13:52:30.942Z,14.57
2022-10-12T13:55:00.468Z,14.60
2022-10-12T13:57:50.359Z,13.95
2022-10-12T14:00:21.559Z,14.18
2022-10-12T14:03:04.408Z,14.45
2022-10-12T14:05:34.189Z,15.25
2022-10-12T14:08:19.965Z,15.82
2022-10-12T14:10:49.836Z,15.68
2022-10-12T14:13:26.707Z,15.35
2022-10-12T14:15:55.764Z,15.68
2022-10-12T14:18:35.728Z,15.70
2022-10-12T14:21:22.314Z,14.13
2022-10-12T14:23:56.151Z,12.85
2022-10-12T14:26:27.672Z,13.45
2022-10-12T14:28:56.177Z,14.07
2022-10-12T14:31:49.911Z,13.57
2022-10-12T14:34:29.538Z,13.70
2022-10-12T14:37:21.799Z,13.52
2022-10-12T14:39:50.837Z,13.73
2022-10-12T14:42:35.874Z,13.63
2022-10-12T14:45:06.755Z,13.13
2022-10-12T14:47:39.069Z,14.32
2022-10-12T14:50:09.904Z,13.25
2022-10-12T14:52:45.579Z,14.15
2022-10-12T14:55:18.884Z,12.95
2022-10-12T14:57:46.693Z,14.68
2022-10-12T15:00:35.145Z,13.65
2022-10-12T15:03:04.047Z,13.52
2022-10-12T15:05:33.388Z,13.30
2022-10-12T15:08:04.627Z,13.10
2022-10-12T15:10:31.919Z,13.52
2022-10-12T15:12:59.289Z,13.93
2022-10-12T15:15:32.570Z,12.63
2022-10-12T15:18:00.288Z,13.02
2022-10-12T15:20:30.014Z,13.65
2022-10-12T15:22:58.601Z,14.02
2022-10-12T15:25:36.753Z,13.85
2022-10-12T15:28:05.166Z,13.52
2022-10-12T15:30:33.725Z,13.77
2022-10-12T15:33:01.125Z,13.85
2022-10-12T15:35:33.211Z,14.27
2022-10-12T15:38:00.906Z,14.85
2022-10-12T15:40:30.119Z,13.88
2022-10-12T15:42:57.814Z,14.68
2022-10-12T15:45:26.594Z,15.38
2022-10-12T15:47:54.668Z,15.38
2022-10-12T15:50:25.047Z,15.80
2022-10-12T15:52:53.112Z,16.58
2022-10-12T15:55:23.571Z,17.50
2022-10-12T15:57:52.028Z,16.20
2022-10-12T16:00:26.304Z,16.58
2022-10-12T16:02:55.565Z,16.80
2022-10-12T16:05:26.356Z,17.75
2022-10-12T16:07:54.365Z,18.90
2022-10-12T16:10:28.606Z,20.52
2022-10-12T16:12:56.037Z,23.13
2022-10-12T16:15:28.045Z,23.75
2022-10-12T16:17:56.657Z,23.33
2022-10-12T16:20:24.139Z,24.15
2022-10-12T16:22:51.862Z,23.33
2022-10-12T16:25:22.486Z,22.17
2022-10-12T16:27:54.013Z,24.58
2022-10-12T16:30:22.767Z,23.05
2022-10-12T16:32:50.412Z,23.90
2022-10-12T16:35:18.013Z,22.73
2022-10-12T16:37:45.497Z,24.27
2022-10-12T16:40:13.506Z,24.55
2022-10-12T16:42:40.927Z,25.48
2022-10-12T16:45:08.864Z,24.27
2022-10-12T16:47:41.919Z,24.90
2022-10-12T16:50:10.902Z,25.95
2022-10-12T16:52:38.394Z,25.40
2022-10-12T16:55:06.691Z,26.05
2022-10-12T16:57:34.390Z,27.58
2022-10-12T17:00:02.195Z,28.95
2022-10-12T17:02:29.709Z,26.88
2022-10-12T17:04:57.191Z,25.63
2022-10-12T17:07:24.771Z,27.45
2022-10-12T17:09:52.199Z,27.38
2022-10-12T17:12:19.434Z,27.75
2022-10-12T17:14:46.838Z,27.02
2022-10-12T17:17:14.201Z,28.42
2022-10-12T17:19:43.727Z,29.13
2022-10-12T17:22:13.592Z,29.92
2022-10-12T17:24:42.836Z,30.48
2022-10-12T17:27:12.674Z,30.95
2022-10-12T17:29:41.337Z,30.50
2022-10-12T17:32:10.811Z,29.60
2022-10-12T17:34:43.134Z,29.90
2022-10-12T17:37:13.058Z,33.05
2022-10-12T17:39:43.594Z,31.77
2022-10-12T17:42:11.381Z,31.40
2022-10-12T17:44:38.966Z,32.15
2022-10-12T17:47:06.593Z,30.45
2022-10-12T17:49:33.930Z,31.30
2022-10-12T17:52:01.277Z,30.23
2022-10-12T17:54:28.971Z,29.70
2022-10-12T17:56:57.061Z,30.13
2022-10-12T17:59:24.794Z,29.70
2022-10-12T18:01:52.814Z,28.38
2022-10-12T18:04:21.058Z,28.63
2022-10-12T18:06:48.746Z,26.75
2022-10-12T18:09:16.445Z,28.02
2022-10-12T18:11:44.629Z,26.42
2022-10-12T18:14:13.584Z,27.38
2022-10-12T18:16:41.351Z,27.63
2022-10-12T18:19:10.506Z,28.70
2022-10-12T18:21:38.741Z,27.90
2022-10-12T18:24:16.639Z,31.73
2022-10-12T18:26:46.477Z,31.38
2022-10-12T18:29:17.766Z,33.22
2022-10-12T18:31:45.742Z,36.50
2022-10-12T18:34:13.318Z,34.00
2022-10-12T18:36:43.033Z,34.28
2022-10-12T18:39:10.629Z,33.13
2022-10-12T18:41:38.747Z,31.48
2022-10-12T18:44:09.763Z,30.83
2022-10-12T18:46:37.691Z,32.20
2022-10-12T18:49:08.192Z,32.15
2022-10-12T18:51:39.353Z,30.63
2022-10-12T18:54:07.275Z,32.85
2022-10-12T18:56:36.987Z,32.78
2022-10-12T18:59:05.611Z,30.42
2022-10-12T19:01:34.240Z,31.25
2022-10-12T19:04:02.536Z,30.60
2022-10-12T19:06:35.080Z,30.70
2022-10-12T19:09:02.736Z,32.85
2022-10-12T19:11:33.307Z,31.45
2022-10-12T19:14:11.557Z,33.42
2022-10-12T19:16:38.881Z,32.28
2022-10-12T19:19:09.381Z,33.50
2022-10-12T19:21:36.756Z,32.10
2022-10-12T19:24:06.573Z,32.92
2022-10-12T19:26:34.757Z,34.72
2022-10-12T19:29:02.256Z,32.28
2022-10-12T19:31:34.135Z,31.48
2022-10-12T19:34:05.139Z,34.95
2022-10-12T19:36:33.169Z,33.00
2022-10-12T19:39:04.715Z,33.05
2022-10-12T19:41:32.033Z,34.28
2022-10-12T19:44:01.477Z,33.53
2022-10-12T19:46:30.271Z,35.10
2022-10-12T19:48:59.407Z,36.22
2022-10-12T19:51:31.422Z,36.63
2022-10-12T19:54:02.291Z,40.88
2022-10-12T19:56:29.701Z,41.17
2022-10-12T19:58:58.119Z,43.67
2022-10-12T20:01:35.184Z,43.40
2022-10-12T20:04:07.215Z,41.63
2022-10-12T20:06:34.970Z,45.25
2022-10-12T20:09:03.439Z,45.00
2022-10-12T20:11:31.323Z,48.95
2022-10-12T20:13:58.953Z,51.20
2022-10-12T20:16:28.984Z,55.33
2022-10-12T20:18:58.562Z,55.33
2022-10-12T20:21:25.973Z,57.20
2022-10-12T20:23:53.391Z,58.58
2022-10-12T20:26:23.633Z,59.78
2022-10-12T20:28:52.844Z,57.90
2022-10-12T20:31:23.511Z,60.05
2022-10-12T20:33:53.973Z,61.10
2022-10-12T20:36:25.553Z,65.85
2022-10-12T20:38:53.228Z,73.03
2022-10-12T20:41:22.079Z,66.45
2022-10-12T20:43:49.512Z,63.38
2022-10-12T20:46:18.691Z,69.63
2022-10-12T20:48:46.484Z,66.80
2022-10-12T20:51:25.523Z,67.45
2022-10-12T20:53:53.195Z,63.20
2022-10-12T20:56:26.334Z,67.20
2022-10-12T20:58:55.690Z,64.47
2022-10-12T21:01:23.856Z,60.13
2022-10-12T21:03:52.937Z,63.10
2022-10-12T21:06:21.760Z,64.28
2022-10-12T21:08:54.877Z,63.92
2022-10-12T21:11:23.626Z,67.90
2022-10-12T21:13:51.709Z,69.07
2022-10-12T21:16:19.349Z,68.72
2022-10-12T21:18:46.780Z,67.63
2022-10-12T21:21:16.624Z,68.50
2022-10-12T21:23:46.187Z,71.72
2022-10-12T21:26:16.973Z,68.28
2022-10-12T21:28:45.647Z,67.65
2022-10-12T21:31:14.006Z,61.00
2022-10-12T21:33:41.832Z,64.45
2022-10-12T21:36:29.240Z,61.13
2022-10-12T21:38:57.409Z,59.25
2022-10-12T21:41:28.504Z,60.25
2022-10-12T21:43:56.666Z,59.10
2022-10-12T21:46:27.490Z,64.50
2022-10-12T21:48:55.641Z,63.05
2022-10-12T21:51:24.245Z,60.42
2022-10-12T21:53:52.658Z,60.20
2022-10-12T21:56:28.256Z,64.25
2022-10-12T22:01:29.881Z,61.33
2022-10-12T22:03:59.787Z,59.75
2022-10-12T22:06:28.969Z,60.90
2022-10-12T22:09:03.424Z,63.03
2022-10-12T22:11:32.252Z,63.10
2022-10-12T22:14:05.441Z,61.80
2022-10-12T22:16:34.797Z,60.38
2022-10-12T22:19:04.404Z,64.65
2022-10-12T22:21:35.516Z,61.00
2022-10-12T22:24:03.026Z,63.85
2022-10-12T22:26:30.738Z,64.80
2022-10-12T22:28:59.815Z,62.75
2022-10-12T22:31:27.343Z,65.63
2022-10-12T22:33:55.668Z,64.40
2022-10-12T22:36:23.366Z,63.75
2022-10-12T22:38:50.780Z,62.00
2022-10-12T22:41:20.187Z,59.75
2022-10-12T22:43:49.060Z,59.92
2022-10-12T22:46:17.449Z,59.45
2022-10-12T22:48:45.368Z,58.85
2022-10-12T22:51:16.948Z,59.17
2022-10-12T22:53:48.613Z,56.40
2022-10-12T22:56:18.771Z,52.53
2022-10-12T22:58:48.665Z,54.55
2022-10-12T23:01:17.609Z,55.42
2022-10-12T23:03:46.510Z,53.70
2022-10-12T23:06:16.140Z,54.25
2022-10-12T23:08:44.014Z,55.95
2022-10-12T23:11:20.076Z,57.03
2022-10-12T23:13:48.375Z,58.08
2022-10-12T23:16:18.761Z,55.60
2022-10-12T23:18:46.250Z,59.47
2022-10-12T23:21:17.275Z,61.05
2022-10-12T23:23:46.399Z,60.35
2022-10-12T23:26:16.960Z,56.50
2022-10-12T23:28:44.968Z,55.80
2022-10-12T23:31:18.225Z,61.40
2022-10-12T23:33:45.702Z,60.17
2022-10-12T23:36:16.047Z,58.50
2022-10-12T23:38:44.986Z,58.40
2022-10-12T23:41:13.402Z,57.92
2022-10-12T23:43:41.081Z,56.15
2022-10-12T23:46:08.884Z,58.90
2022-10-12T23:48:36.355Z,56.83
2022-10-12T23:51:07.071Z,56.42
2022-10-12T23:53:36.298Z,57.97
2022-10-12T23:56:06.300Z,56.10
2022-10-12T23:58:34.083Z,51.55
